Αναφορές METAR

 

LGKR - Ioannis Kapodist, Greece
Απόσταση από το σταθμό: ΝΝΑ 16km
Ενημερώθηκε: 11/12/2017 11:20
Κυρίως Νεφελώδης
Κυρίως Νεφελώδης
 Ανεμος από ΝΑ
Ανεμος: ΝΑ 20 km/h
Θερμοκρασία: 13°C
Σημείο Δρόσου: 8°C
Υγρασία: 72%
Βαρόμετρο: 1022 hPa
Νέφωση: Κυρίως Νεφελώδης
Ορατότητα: 10 km
Λεπτομέρειες νέφωσης: Μερικώς Νεφελώδης 1067 m
Κυρίως Νεφελώδης 2438 m
2017/12/11 09:20 LGKR 110920Z 13011KT 9999 SCT035 BKN080 13/08 Q1022 NOSIG
LGIO - Ioannina, Greece
Απόσταση από το σταθμό: Α 84km
Ενημερώθηκε: 11/12/2017 11:20
Κυρίως Νεφελώδης
Κυρίως Νεφελώδης
 Ανεμος από μεταβλητός
Ανεμος: μεταβλητός 0 km/h
Θερμοκρασία: 4°C
Σημείο Δρόσου: 2°C
Υγρασία: 87%
Βαρόμετρο: 1023 hPa
Νέφωση: Κυρίως Νεφελώδης
Ορατότητα: 10 km
Λεπτομέρειες νέφωσης: Μερικώς Νεφελώδης 914 m
Κυρίως Νεφελώδης 1829 m
2017/12/11 09:20 LGIO 110920Z /////KT 9999 SCT030 BKN060 04/02 Q1023
 
LGPZ - Preveza/Aktion, Greece
Απόσταση από το σταθμό: ΝΑ 122km
Ενημερώθηκε: 11/12/2017 11:20
Κυρίως Νεφελώδης
Κυρίως Νεφελώδης
 Ανεμος από ΒΑ
Ανεμος: ΒΑ 19 km/h
Θερμοκρασία: 11°C
Σημείο Δρόσου: 7°C
Υγρασία: 77%
Βαρόμετρο: 1025 hPa
Νέφωση: Κυρίως Νεφελώδης
Ορατότητα: 10 km
Λεπτομέρειες νέφωσης: Μερικώς Νεφελώδης 762 m
Κυρίως Νεφελώδης 2134 m
2017/12/11 09:20 LGPZ 110920Z 05010KT 9999 SCT025 BKN070 11/07 Q1025
LIBY - Santa Maria Di L, Italy
Απόσταση από το σταθμό: Δ 128km
Ενημερώθηκε: 11/12/2017 10:55
Διάσπαρτα Νέφη
Διάσπαρτα Νέφη
 Ανεμος από ΝΝΔ
Ανεμος: ΝΝΔ 33 km/h
Θερμοκρασία: 14°C
Σημείο Δρόσου: 9°C
Υγρασία: 72%
Βαρόμετρο: 1018 hPa
Νέφωση: Διάσπαρτα Νέφη
Ορατότητα: 10 km
Λεπτομέρειες νέφωσης: Διάσπαρτα Νέφη 671 m
2017/12/11 08:55 LIBY 110855Z 20018KT 9999 FEW022 14/09 Q1018 RMK BKN SCT190 QUK 5 QUL 3 SW VIS MAR 15 KM VIS MIN 9999
 
LIBN - Lecce (it-Afb), Italy
Απόσταση από το σταθμό: ΔΒΔ 155km
Ενημερώθηκε: 11/12/2017 10:55
Μερικώς Νεφελώδης
Μερικώς Νεφελώδης
 Ανεμος από Ν
Ανεμος: Ν 30 km/h
Θερμοκρασία: 14°C
Σημείο Δρόσου: 10°C
Υγρασία: 77%
Βαρόμετρο: 1018 hPa
Νέφωση: Μερικώς Νεφελώδης
Ορατότητα: 10 km
Λεπτομέρειες νέφωσης: Διάσπαρτα Νέφη 914 m
Μερικώς Νεφελώδης 1219 m
2017/12/11 08:55 LIBN 110855Z 18016KT 9999 FEW030 SCT040 14/10 Q1018 RMK BKN VIS MIN 9999 WIND THR14 18015KT WIND THR32 18014KT BLU
LWOH - Ohrid, Macedonia
Απόσταση από το σταθμό: ΒΒΑ 177km
Ενημερώθηκε: 11/12/2017 11:30
Κυρίως Νεφελώδης
Κυρίως Νεφελώδης
 Ανεμος από ΔΒΔ
Ανεμος: ΔΒΔ 4 km/h
Θερμοκρασία: 5°C
Σημείο Δρόσου: -1°C
Υγρασία: 66%
Βαρόμετρο: 1020 hPa
Νέφωση: Κυρίως Νεφελώδης
Ορατότητα: 10 km
Λεπτομέρειες νέφωσης: Κυρίως Νεφελώδης 1219 m
2017/12/11 09:30 LWOH 110930Z 29002KT 9999 BKN040 05/M01 Q1020
 
LGKZ - Kozani (civ/Army, Greece
Απόσταση από το σταθμό: ΑΒΑ 180km
Ενημερώθηκε: 11/12/2017 10:50
Αίθριος
Αίθριος
 Ανεμος από ΑΝΑ
Ανεμος: ΑΝΑ 11 km/h
Θερμοκρασία: 5°C
Wind Chill: 2°C
Σημείο Δρόσου: -2°C
Υγρασία: 61%
Βαρόμετρο: 1021 hPa
Summary: Αίθριος
Ορατότητα: greater than 10 km
2017/12/11 08:50 LGKZ 110850Z 11006KT CAVOK 05/M02 Q1021
LATI - Tirana, Albania
Απόσταση από το σταθμό: Β 186km
Ενημερώθηκε: 11/12/2017 11:20
Νεφοσκεπής
Νεφοσκεπής
 Ανεμος από Ν
Ανεμος: Ν 13 km/h
Θερμοκρασία: 12°C
Σημείο Δρόσου: 2°C
Υγρασία: 51%
Βαρόμετρο: 1020 hPa
Νέφωση: Νεφοσκεπής
Ορατότητα: 10 km
Λεπτομέρειες νέφωσης: Νεφοσκεπής 1524 m
2017/12/11 09:20 LATI 110920Z 19007KT 9999 OVC050 12/02 Q1020 NOSIG
 
LIBR - Brindisi/Casale, Italy
Απόσταση από το σταθμό: ΔΒΔ 189km
Ενημερώθηκε: 11/12/2017 11:15
Μερικώς Νεφελώδης
Μερικώς Νεφελώδης
 Ανεμος από Ν
Ανεμος: Ν 41 km/h, Ριπή: 59 km/h
Θερμοκρασία: 13°C
Σημείο Δρόσου: 10°C
Υγρασία: 82%
Βαρόμετρο: 1018 hPa
Νέφωση: Μερικώς Νεφελώδης
Ορατότητα: 10 km
Λεπτομέρειες νέφωσης: Μερικώς Νεφελώδης 457 m
2017/12/11 09:15 LIBR 110915Z 18022G32KT 9999 SCT015 13/10 Q1018 NOSIG
LGKF - Kefallinia, Greece
Απόσταση από το σταθμό: ΝΝΑ 190km
Ενημερώθηκε: 11/12/2017 10:50
Κυρίως Νεφελώδης
Κυρίως Νεφελώδης
 Ανεμος από ΑΝΑ
Ανεμος: ΑΝΑ 17 km/h
Θερμοκρασία: 13°C
Σημείο Δρόσου: 6°C
Υγρασία: 63%
Βαρόμετρο: 1023 hPa
Νέφωση: Κυρίως Νεφελώδης
Ορατότητα: 10 km
Λεπτομέρειες νέφωσης: Μερικώς Νεφελώδης 610 m
Κυρίως Νεφελώδης 2134 m
2017/12/11 08:50 LGKF 110850Z 11009KT 9999 SCT020 BKN070 13/06 Q1023
 
LGRX - Araxos (civ/Afb), Greece
Απόσταση από το σταθμό: ΝΑ 222km
Ενημερώθηκε: 11/12/2017 11:20
Κυρίως Νεφελώδης
Κυρίως Νεφελώδης
 Ανεμος από calm
Ανεμος: Απνοια
Θερμοκρασία: 10°C
Σημείο Δρόσου: 6°C
Υγρασία: 76%
Βαρόμετρο: 1024 hPa
Νέφωση: Κυρίως Νεφελώδης
Ορατότητα: 10 km
Λεπτομέρειες νέφωσης: Διάσπαρτα Νέφη 1067 m
Κυρίως Νεφελώδης 2134 m
2017/12/11 09:20 LGRX 110920Z 00000KT 9999 FEW035 BKN070 10/06 Q1024
LIBG - Grottaglie(Civ/A, Italy
Απόσταση από το σταθμό: ΔΒΔ 226km
Ενημερώθηκε: 11/12/2017 10:50
Διάσπαρτα Νέφη
Διάσπαρτα Νέφη
 Ανεμος από Ν
Ανεμος: Ν 22 km/h
Θερμοκρασία: 13°C
Σημείο Δρόσου: 8°C
Υγρασία: 72%
Βαρόμετρο: 1017 hPa
Νέφωση: Διάσπαρτα Νέφη
Ορατότητα: 10 km
Λεπτομέρειες νέφωσης: Διάσπαρτα Νέφη 914 m
2017/12/11 08:50 LIBG 110850Z 19012KT 9999 FEW030 13/08 Q1017
 
LGAD - Andravida (civ/A, Greece
Απόσταση από το σταθμό: ΝΝΑ 238km
Ενημερώθηκε: 11/12/2017 11:20
Κυρίως Νεφελώδης
Κυρίως Νεφελώδης
 Ανεμος από ΑΝΑ
Ανεμος: ΑΝΑ 9 km/h
Θερμοκρασία: 12°C
Σημείο Δρόσου: 5°C
Υγρασία: 63%
Βαρόμετρο: 1023 hPa
Νέφωση: Κυρίως Νεφελώδης
Ορατότητα: 10 km
Λεπτομέρειες νέφωσης: Διάσπαρτα Νέφη 762 m
Κυρίως Νεφελώδης 2438 m
2017/12/11 09:20 LGAD 110920Z 12005KT 9999 FEW025 BKN080 12/05 Q1023
LGZA - Zakinthos Airpor, Greece
Απόσταση από το σταθμό: ΝΝΑ 239km
Ενημερώθηκε: 11/12/2017 10:50
Κυρίως Νεφελώδης
Κυρίως Νεφελώδης
 Ανεμος από calm
Ανεμος: Απνοια
Θερμοκρασία: 11°C
Σημείο Δρόσου: 7°C
Υγρασία: 77%
Βαρόμετρο: 1023 hPa
Νέφωση: Κυρίως Νεφελώδης
Ορατότητα: 10 km
Λεπτομέρειες νέφωσης: Διάσπαρτα Νέφη 762 m
Κυρίως Νεφελώδης 2134 m
2017/12/11 08:50 LGZA 110850Z 00000KT 9999 FEW025 BKN070 11/07 Q1023
 
LIBC - Crotone, Italy
Απόσταση από το σταθμό: ΔΝΔ 253km
Ενημερώθηκε: 11/12/2017 10:50
Αίθριος
Αίθριος
 Ανεμος από ΝΝΔ
Ανεμος: ΝΝΔ 24 km/h
Θερμοκρασία: 13°C
Σημείο Δρόσου: 8°C
Υγρασία: 72%
Βαρόμετρο: 1018 hPa
Summary: Αίθριος
Ορατότητα: greater than 10 km
2017/12/11 08:50 LIBC 110850Z 21013KT CAVOK 13/08 Q1018
LGBL - Nea Anchialos, Greece
Απόσταση από το σταθμό: ΑΝΑ 261km
Ενημερώθηκε: 11/12/2017 11:20
Αίθριος
Αίθριος
 Ανεμος από calm
Ανεμος: Απνοια
Θερμοκρασία: 12°C
Σημείο Δρόσου: 1°C
Υγρασία: 47%
Βαρόμετρο: 1023 hPa
Summary: Αίθριος
Ορατότητα: greater than 10 km
2017/12/11 09:20 LGBL 110920Z 00000KT CAVOK 12/01 Q1023
 
LIBH - Marina Di Ginosa, Italy
Απόσταση από το σταθμό: ΔΒΔ 264km
Ενημερώθηκε: 11/12/2017 09:55
ΜΗ ΠΡΟΣΦΑΤΟ METAR
Αίθριος
Αίθριος
 Ανεμος από Ν
Ανεμος: Ν 26 km/h
Θερμοκρασία: 12°C
Σημείο Δρόσου: 6°C
Υγρασία: 67%
Βαρόμετρο: 1016 hPa
Summary: Αίθριος
Ορατότητα: greater than 10 km
2017/12/11 07:55 LIBH 110755Z 18014KT CAVOK 12/06 Q1016 RMK BKN SCT083 SCT200 QUK 3 QUL 2 SW VIS MAR 18 KM VIS MIN 9999
LIBV - Gioia Del Colle, Italy
Απόσταση από το σταθμό: ΔΒΔ 273km
Ενημερώθηκε: 11/12/2017 10:55
Αίθριος
Αίθριος
 Ανεμος από ΝΝΑ
Ανεμος: ΝΝΑ 30 km/h
Θερμοκρασία: 9°C
Wind Chill: 5°C
Σημείο Δρόσου: 5°C
Υγρασία: 76%
Βαρόμετρο: 1016 hPa
Summary: Αίθριος
Ορατότητα: greater than 10 km
2017/12/11 08:55 LIBV 110855Z 16016KT CAVOK 09/05 Q1016 RMK BKN SCT110 BKN200 VIS MIN 9999 WIND THR32 17016KT WIND THR14 15014KT BLU
 
LGTS - Thessaloniki/Mik, Greece
Απόσταση από το σταθμό: ΑΒΑ 279km
Ενημερώθηκε: 11/12/2017 11:20
Αίθριος
Αίθριος
 Ανεμος από μεταβλητός
Ανεμος: μεταβλητός 4 km/h
Θερμοκρασία: 8°C
Σημείο Δρόσου: 1°C
Υγρασία: 62%
Βαρόμετρο: 1022 hPa
Summary: Αίθριος
Ορατότητα: greater than 10 km
2017/12/11 09:20 LGTS 110920Z VRB02KT CAVOK 08/01 Q1022 NOSIG
LWSK - Skopje/Petrovac, Macedonia
Απόσταση από το σταθμό: ΒΒΑ 289km
Ενημερώθηκε: 11/12/2017 11:30
Αίθριος
Αίθριος
 Ανεμος από calm
Ανεμος: Απνοια
Θερμοκρασία: 0°C
Σημείο Δρόσου: -2°C
Υγρασία: 87%
Βαρόμετρο: 1020 hPa
Summary: Αίθριος
Ορατότητα: greater than 10 km
2017/12/11 09:30 LWSK 110930Z 00000KT CAVOK M00/M02 Q1020 NOSIG


 ♦     ♦     ♦     Ποτέ μη βασίζετε κρίσιμες αποφάσεις σ'αυτές ή οποιεσδήποτε πληροφορίες καιρού από το Internet     ♦     ♦     ♦